EmailTwitter


Observations de surface / Québec / CYUL (71627)

Régions: Québec | Canada | États-Unis | Europe | France | UK | Ailleurs
Station
Affichage
Infos & localisation pour CYUL (71627) | Aide pour décoder les METARs

Observations prises le 2018-09-21 à 18H00 UTC à MONTREAL INTL A, QB (CYUL)

Etat du ciel: couvert.

Température: 21.0 Celsius

Point de rosée: 18.0 Celsius

Humidité relative: 83%

Indice Humidex: 27.

Vents: Sud-sud-est à 30 km/h ou 16 noeuds.

Rafale du vent: 43 km/h ou 23 noeuds.

Pression au niveau moyen de la mer: 100.72 kilopascals.

Calage altimétrique: 100.71 kilopascals ou 29.74 pouces de mercure.

Visibilité horizontale: 15.00 milles terrestres ou 24.00 kilomètres.

Hauteur du plafond: 975 mètres ( 3200 pieds ).

Observation METAR:

CYUL 211800Z 16016G23KT 15SM FEW020 OVC032 21/18 A2974 RMK CF1SC8 CF TR SLP072

DENSITY ALT 1100FT=